Decoded Metar for PAIL (ILIAMNA in AK, USA) (IATA:ILI) | Meteo·Mobile Aviation Weather
aviador You're here:

PAIL Decoded Metar

ILIAMNA in AK, USA
Report Time2018-12-11 11:53:00
UTC Time2018-12-11 12:19:03
Flight Rules vfr VFR
Wind270° at 05 kt
W.Decomp.*RWY 25: 5.0 kt HW 0.3 kt RCW
RWY 17: 0.6 kt HW 5.0 kt RCW
W.Rank270° ranks 29
Current wind is below 270° avg. (5.6)
Visibility9999 m
Phenomena:N/A
Clouds:Overcast 060 Hf
Expected CloudBase > 400 ft AGL from Temp-Dew spread
Ceiling6,000 ft
Temp00°C (ISA -15)
Dew Point-1°C (93% RH)
AAT-3.9°C
QNH970 hPa
Density Alt-59 ft
Elevation161 ft
Report Wrong Elevation
Raw Report
PAIL 111153Z AUTO 27005KT 10SM OVC060 00/M01 A2863 RMK AO2 SLP697
P0001 60012 70038 T00001006 10006 20000 51010 TSNO=

Extra information for PAIL:More info

Metar Taf Metar & Taf Last 4 Metars F.Rules Stats Wind Profile Meteogram Temp Stats Airport Information Weather charts Add Link Nearby VenuesMetar ALERT Operation Metar Decoded Social comments

AIRNAV info for PAIL